Time;durP1;ratioP1;P1;durP2;ratioP2;P2;SDS_P1;SDS_P2;PMS_P1;PMS_P2;Temp;Humidity;BMP_temperature;BMP_pressure;BME280_temperature;BME280_humidity;BME280_pressure;Samples;Min_cycle;Max_cycle;Signal;HPM_P1;HPM_P2
2023/09/01 00:00:30;;;;;;;5.78;1.50;;;20.20;99.90;;;;;;5026390;28;20073;-86
2023/09/01 00:02:55;;;;;;;7.32;1.67;;;20.30;99.90;;;;;;5022430;28;20029;-86
2023/09/01 00:05:21;;;;;;;3.83;1.42;;;20.20;99.90;;;;;;5018366;28;20062;-83
2023/09/01 00:07:47;;;;;;;6.75;1.50;;;20.20;99.90;;;;;;5010396;28;20034;-87
2023/09/01 00:10:12;;;;;;;4.07;1.58;;;20.20;99.90;;;;;;5026727;28;20036;-86
2023/09/01 00:12:38;;;;;;;4.75;1.35;;;20.10;99.90;;;;;;5010768;28;20037;-87
2023/09/01 00:15:04;;;;;;;3.85;1.30;;;20.10;99.90;;;;;;5014330;28;20558;-88
2023/09/01 00:17:30;;;;;;;4.80;1.30;;;20.10;99.90;;;;;;5028409;28;20087;-87
2023/09/01 00:19:55;;;;;;;3.85;1.30;;;20.20;99.90;;;;;;5028505;28;20022;-88
2023/09/01 00:22:21;;;;;;;3.80;1.30;;;20.20;99.90;;;;;;5011278;28;20155;-86
2023/09/01 00:24:48;;;;;;;5.43;1.42;;;20.10;99.90;;;;;;5029712;28;20053;-84
2023/09/01 00:27:13;;;;;;;5.18;1.30;;;20.10;99.90;;;;;;5014546;28;20038;-88
2023/09/01 00:29:39;;;;;;;4.07;1.25;;;20.20;99.90;;;;;;5016793;28;20116;-84
2023/09/01 00:32:05;;;;;;;4.43;1.38;;;20.20;99.90;;;;;;5028786;28;20029;-84
2023/09/01 00:34:31;;;;;;;8.82;1.58;;;20.10;99.90;;;;;;5017839;28;20018;-89
2023/09/01 00:36:57;;;;;;;6.57;1.60;;;20.10;99.90;;;;;;5013344;28;20035;-86
2023/09/01 00:39:23;;;;;;;6.28;1.50;;;20.20;99.90;;;;;;5025549;28;20104;-87
2023/09/01 00:41:49;;;;;;;5.40;1.42;;;20.20;99.90;;;;;;5019075;28;20486;-87
2023/09/01 00:44:14;;;;;;;4.70;1.35;;;20.20;99.90;;;;;;5029657;28;20021;-87
2023/09/01 00:46:46;;;;;;;5.50;1.45;;;20.20;99.90;;;;;;5028672;28;20030;-84
2023/09/01 00:49:12;;;;;;;3.20;1.30;;;20.10;99.90;;;;;;5026627;28;20029;-88
2023/09/01 00:51:38;;;;;;;3.40;1.38;;;20.10;99.90;;;;;;5008940;28;20030;-86
2023/09/01 00:54:05;;;;;;;4.15;1.15;;;20.00;99.90;;;;;;5024439;28;20485;-88
2023/09/01 00:56:31;;;;;;;3.65;1.40;;;20.10;99.90;;;;;;5025288;28;20079;-84
2023/09/01 00:58:57;;;;;;;5.03;1.33;;;20.10;99.90;;;;;;5028700;28;20026;-88
2023/09/01 01:01:22;;;;;;;6.75;1.30;;;20.10;99.90;;;;;;5026988;28;20029;-84
2023/09/01 01:03:51;;;;;;;4.85;1.40;;;20.00;99.90;;;;;;5028688;28;20034;-88
2023/09/01 01:06:47;;;;;;;5.70;1.80;;;20.10;99.90;;;;;;5011633;28;20411;-88
2023/09/01 01:09:42;;;;;;;8.20;1.75;;;20.10;99.90;;;;;;5025082;28;20503;-86
2023/09/01 01:12:43;;;;;;;5.90;1.50;;;20.00;99.90;;;;;;5027879;28;20112;-88
2023/09/01 01:15:13;;;;;;;5.72;1.30;;;20.00;99.90;;;;;;4967649;28;20077;-84
2023/09/01 01:17:41;;;;;;;6.97;1.70;;;20.00;99.90;;;;;;5017483;28;20037;-86
2023/09/01 01:20:27;;;;;;;3.78;1.40;;;20.00;99.90;;;;;;5031287;28;20029;-88
2023/09/01 01:23:11;;;;;;;6.15;1.80;;;20.10;99.90;;;;;;5030805;28;20034;-85
2023/09/01 01:25:47;;;;;;;6.95;1.75;;;20.00;99.90;;;;;;5032021;28;20022;-84
2023/09/01 01:28:13;;;;;;;7.20;1.80;;;20.00;99.90;;;;;;5017769;28;20405;-88
2023/09/01 01:30:39;;;;;;;9.10;2.03;;;20.00;99.90;;;;;;5031401;28;20104;-85
2023/09/01 01:33:22;;;;;;;6.22;1.60;;;20.00;99.90;;;;;;5031909;28;20145;-86
2023/09/01 01:36:08;;;;;;;5.32;1.52;;;20.10;99.90;;;;;;5031383;28;20374;-87
2023/09/01 01:38:37;;;;;;;6.55;1.98;;;20.10;99.90;;;;;;5031749;28;20043;-88
2023/09/01 01:41:18;;;;;;;5.70;1.70;;;19.90;99.90;;;;;;5011145;28;20445;-84
2023/09/01 01:43:45;;;;;;;7.65;2.30;;;20.10;99.90;;;;;;5013939;28;20033;-84
2023/09/01 01:46:11;;;;;;;9.23;2.20;;;20.10;99.90;;;;;;5026028;28;20014;-87
2023/09/01 01:48:40;;;;;;;5.25;1.75;;;20.10;99.90;;;;;;5024292;28;20481;-86
2023/09/01 01:51:05;;;;;;;8.90;2.00;;;20.10;99.90;;;;;;5013678;28;20025;-88
2023/09/01 01:53:33;;;;;;;12.45;1.90;;;20.20;99.90;;;;;;5013360;28;20036;-89
2023/09/01 01:55:59;;;;;;;;;;;20.20;99.90;;;;;;5031799;28;20021;-89
2023/09/01 01:58:25;;;;;;;5.28;1.63;;;20.20;99.90;;;;;;5031541;28;19950;-88
2023/09/01 02:00:50;;;;;;;7.45;1.92;;;20.10;99.90;;;;;;5032247;28;20025;-87
2023/09/01 02:03:16;;;;;;;7.32;1.80;;;20.00;99.90;;;;;;5024710;28;20382;-88
2023/09/01 02:05:41;;;;;;;8.88;2.10;;;20.10;99.90;;;;;;5029925;28;20506;-88
2023/09/01 02:08:07;;;;;;;6.68;1.80;;;20.10;99.90;;;;;;5031044;28;20045;-85
2023/09/01 02:10:33;;;;;;;6.30;1.83;;;20.20;99.90;;;;;;5031210;28;20031;-87
2023/09/01 02:12:59;;;;;;;11.68;2.30;;;20.20;99.90;;;;;;5031138;28;20021;-86
2023/09/01 02:15:25;;;;;;;5.25;1.90;;;20.20;99.90;;;;;;5021502;28;20026;-84
2023/09/01 02:17:51;;;;;;;6.25;2.10;;;20.10;99.90;;;;;;5019017;28;20374;-84
2023/09/01 02:20:17;;;;;;;10.13;2.42;;;20.10;99.90;;;;;;5030902;28;20464;-86
2023/09/01 02:22:44;;;;;;;9.07;1.92;;;20.20;99.90;;;;;;5028503;28;20129;-85
2023/09/01 02:25:10;;;;;;;12.68;2.20;;;20.10;99.90;;;;;;5027814;28;20523;-88
2023/09/01 02:27:38;;;;;;;6.82;1.90;;;20.20;99.90;;;;;;5028134;28;20034;-86
2023/09/01 02:30:05;;;;;;;11.43;2.15;;;20.00;99.90;;;;;;5012200;28;20408;-87
2023/09/01 02:32:30;;;;;;;9.80;1.80;;;20.10;99.90;;;;;;5029118;28;20065;-85
2023/09/01 02:34:57;;;;;;;11.00;2.20;;;20.20;99.90;;;;;;5030797;28;20107;-84
2023/09/01 02:37:22;;;;;;;10.05;2.30;;;20.20;99.90;;;;;;5031526;28;20469;-87
2023/09/01 02:39:48;;;;;;;8.95;1.98;;;20.20;99.90;;;;;;5030516;28;20053;-84
2023/09/01 02:42:14;;;;;;;14.93;3.03;;;20.20;99.90;;;;;;5008835;28;20266;-84
2023/09/01 02:44:39;;;;;;;13.57;3.20;;;20.20;99.90;;;;;;5030550;28;20101;-84
2023/09/01 02:47:05;;;;;;;12.90;3.05;;;20.10;99.90;;;;;;5027473;28;20021;-86
2023/09/01 02:49:30;;;;;;;10.82;2.15;;;20.20;99.90;;;;;;5030453;28;20025;-85
2023/09/01 02:51:56;;;;;;;9.75;2.20;;;20.20;99.90;;;;;;5029443;28;20025;-84
2023/09/01 02:54:22;;;;;;;12.50;2.75;;;20.20;99.90;;;;;;5011179;28;20025;-88
2023/09/01 02:56:48;;;;;;;10.73;2.13;;;20.30;99.90;;;;;;5016803;28;20034;-88
2023/09/01 02:59:13;;;;;;;9.85;2.55;;;20.30;99.90;;;;;;5010652;28;20038;-87
2023/09/01 03:01:39;;;;;;;8.52;2.05;;;20.30;99.90;;;;;;5010424;28;20425;-86
2023/09/01 03:04:07;;;;;;;11.70;2.10;;;20.40;99.90;;;;;;5010441;28;20061;-85
2023/09/01 03:06:34;;;;;;;11.27;2.15;;;20.40;99.90;;;;;;5017145;28;20029;-86
2023/09/01 03:08:59;;;;;;;10.33;2.40;;;20.40;99.90;;;;;;5027567;28;20033;-89
2023/09/01 03:11:25;;;;;;;10.88;2.83;;;20.30;99.90;;;;;;5030649;28;20814;-83
2023/09/01 03:13:51;;;;;;;9.77;2.63;;;20.30;99.90;;;;;;5012740;28;20017;-83
2023/09/01 03:16:16;;;;;;;12.07;2.53;;;20.30;99.90;;;;;;5029716;28;20044;-84
2023/09/01 03:18:42;;;;;;;9.95;2.30;;;20.30;99.90;;;;;;5029921;28;20033;-86
2023/09/01 03:21:12;;;;;;;8.52;1.77;;;20.40;99.90;;;;;;5024510;28;20029;-88
2023/09/01 03:23:38;;;;;;;8.85;2.97;;;20.40;99.90;;;;;;5026171;28;20024;-85
2023/09/01 03:26:07;;;;;;;7.15;1.92;;;20.40;99.90;;;;;;5026394;28;20030;-87
2023/09/01 03:28:33;;;;;;;6.15;1.92;;;20.30;99.90;;;;;;5012911;28;20039;-89
2023/09/01 03:30:59;;;;;;;9.77;2.05;;;20.30;99.90;;;;;;5022215;28;20031;-83
2023/09/01 03:33:27;;;;;;;7.22;1.77;;;20.40;99.90;;;;;;5000454;28;20033;-82
2023/09/01 03:35:52;;;;;;;7.22;1.80;;;20.40;99.90;;;;;;5018372;28;20025;-83
2023/09/01 03:38:19;;;;;;;5.85;1.98;;;20.40;99.90;;;;;;5024959;28;20409;-83
2023/09/01 03:40:45;;;;;;;10.68;2.15;;;20.40;99.90;;;;;;5029212;28;20520;-82
2023/09/01 03:43:10;;;;;;;12.00;2.17;;;20.40;99.90;;;;;;5010547;28;20448;-86
2023/09/01 03:45:36;;;;;;;10.93;2.08;;;20.30;99.90;;;;;;5029308;28;20072;-84
2023/09/01 03:48:02;;;;;;;8.13;2.25;;;20.30;99.90;;;;;;5023523;28;20038;-86
2023/09/01 03:50:28;;;;;;;8.98;2.38;;;20.30;99.90;;;;;;5018107;28;20382;-82
2023/09/01 03:52:53;;;;;;;11.63;2.28;;;20.20;99.90;;;;;;5019997;28;20030;-83
2023/09/01 03:55:19;;;;;;;7.22;1.80;;;20.20;99.90;;;;;;5018553;28;20390;-82
2023/09/01 03:57:44;;;;;;;12.65;1.92;;;20.20;99.90;;;;;;5003321;28;20068;-84
2023/09/01 04:00:11;;;;;;;7.68;1.92;;;20.20;99.90;;;;;;5021565;28;20120;-85
2023/09/01 04:02:37;;;;;;;12.38;2.22;;;20.20;99.90;;;;;;5012723;28;20080;-83
2023/09/01 04:05:03;;;;;;;11.60;2.20;;;20.20;99.90;;;;;;5023261;28;20460;-85
2023/09/01 04:07:29;;;;;;;10.77;2.28;;;20.30;99.90;;;;;;5015487;28;20044;-84
2023/09/01 04:09:56;;;;;;;10.02;2.20;;;20.20;99.90;;;;;;5035348;28;20025;-91
2023/09/01 04:12:22;;;;;;;9.05;2.28;;;20.30;99.90;;;;;;5038395;28;20400;-84
2023/09/01 04:14:47;;;;;;;7.43;2.00;;;20.30;99.90;;;;;;5026452;28;20028;-83
2023/09/01 04:17:13;;;;;;;7.22;2.08;;;20.30;99.90;;;;;;5012447;28;20044;-83
2023/09/01 04:19:38;;;;;;;8.23;2.15;;;20.30;99.90;;;;;;5033047;28;20029;-85
2023/09/01 04:22:04;;;;;;;5.57;2.25;;;20.30;99.90;;;;;;5032083;28;20133;-82
2023/09/01 04:24:30;;;;;;;5.07;2.40;;;20.20;99.90;;;;;;5027393;28;20029;-84
2023/09/01 04:26:55;;;;;;;6.07;1.95;;;20.20;99.90;;;;;;5028517;28;20037;-87
2023/09/01 04:29:21;;;;;;;8.88;1.83;;;20.20;99.90;;;;;;5024054;28;20021;-83
2023/09/01 04:31:48;;;;;;;8.13;1.73;;;20.10;99.90;;;;;;5028887;28;20030;-83
2023/09/01 04:34:14;;;;;;;8.80;1.98;;;20.10;99.90;;;;;;5026996;28;20037;-83
2023/09/01 04:36:39;;;;;;;11.07;2.17;;;20.10;99.90;;;;;;5028744;28;20367;-83
2023/09/01 04:39:05;;;;;;;10.65;2.20;;;20.10;99.90;;;;;;5028534;28;20542;-84
2023/09/01 04:41:32;;;;;;;7.35;1.88;;;20.20;99.90;;;;;;5028494;28;20020;-84
2023/09/01 04:43:58;;;;;;;6.53;1.92;;;20.20;99.90;;;;;;5029512;28;20025;-83
2023/09/01 04:46:24;;;;;;;9.00;2.17;;;20.10;99.90;;;;;;5026424;28;20109;-83
2023/09/01 04:48:49;;;;;;;9.18;2.10;;;20.20;99.90;;;;;;5009511;28;20495;-83
2023/09/01 04:51:15;;;;;;;9.85;1.75;;;20.20;99.90;;;;;;5022198;28;20548;-84
2023/09/01 04:53:41;;;;;;;5.90;1.83;;;20.10;99.90;;;;;;5028261;28;20033;-84
2023/09/01 04:56:07;;;;;;;5.68;1.73;;;20.00;99.90;;;;;;5028391;28;20049;-88
2023/09/01 04:58:32;;;;;;;9.10;1.63;;;20.10;99.90;;;;;;5027045;28;20048;-87
2023/09/01 05:00:58;;;;;;;6.05;1.60;;;20.10;99.90;;;;;;5032777;28;20017;-84
2023/09/01 05:03:24;;;;;;;6.65;1.70;;;20.00;99.90;;;;;;5006547;28;20036;-85
2023/09/01 05:05:50;;;;;;;5.00;1.58;;;20.00;99.90;;;;;;5029446;28;20210;-84
2023/09/01 05:08:16;;;;;;;8.93;2.00;;;19.90;99.90;;;;;;5029962;28;20473;-83
2023/09/01 05:10:42;;;;;;;8.60;1.83;;;20.00;99.90;;;;;;5031275;28;20443;-83
2023/09/01 05:13:07;;;;;;;7.53;2.00;;;19.90;99.90;;;;;;5017100;28;20026;-83
2023/09/01 05:15:34;;;;;;;4.72;1.50;;;19.90;99.90;;;;;;5013260;28;20076;-83
2023/09/01 05:18:00;;;;;;;6.15;1.65;;;19.80;99.90;;;;;;5012486;28;20060;-83
2023/09/01 05:20:26;;;;;;;7.03;1.63;;;19.80;99.90;;;;;;5031290;28;20029;-83
2023/09/01 05:22:51;;;;;;;8.05;1.58;;;19.50;99.90;;;;;;5030557;28;20100;-83
2023/09/01 05:25:17;;;;;;;5.57;1.60;;;19.60;99.90;;;;;;5012192;28;20034;-83
2023/09/01 05:27:44;;;;;;;4.90;1.50;;;19.60;99.90;;;;;;4994461;28;20130;-87
2023/09/01 05:30:10;;;;;;;6.05;1.50;;;19.60;99.90;;;;;;5012042;28;20025;-83
2023/09/01 05:32:36;;;;;;;7.60;1.83;;;19.60;99.90;;;;;;5012061;28;20112;-84
2023/09/01 05:35:02;;;;;;;7.45;1.20;;;19.50;99.90;;;;;;5011928;28;20106;-83
2023/09/01 05:37:28;;;;;;;3.90;1.20;;;19.60;99.90;;;;;;5011952;28;20026;-83
2023/09/01 05:39:56;;;;;;;3.95;1.23;;;19.60;99.90;;;;;;5007020;28;20448;-85
2023/09/01 05:42:21;;;;;;;5.38;1.45;;;19.50;99.90;;;;;;5019913;28;20531;-83
2023/09/01 05:44:47;;;;;;;7.72;1.45;;;19.60;99.90;;;;;;5021247;28;20160;-83
2023/09/01 05:47:13;;;;;;;5.28;1.40;;;19.60;99.90;;;;;;5024836;28;20595;-83
2023/09/01 05:49:38;;;;;;;5.85;1.80;;;19.60;99.90;;;;;;5021153;28;20390;-85
2023/09/01 05:52:04;;;;;;;6.97;1.60;;;19.70;99.90;;;;;;5024518;28;20030;-88
2023/09/01 05:54:30;;;;;;;6.85;1.70;;;19.70;99.90;;;;;;5026858;28;20022;-87
2023/09/01 05:56:55;;;;;;;7.25;1.77;;;19.70;99.90;;;;;;5026549;28;20460;-84
2023/09/01 05:59:21;;;;;;;5.38;1.80;;;19.70;99.90;;;;;;5016331;28;20308;-87
2023/09/01 06:01:47;;;;;;;6.82;1.50;;;19.70;99.90;;;;;;5022586;28;20026;-84
2023/09/01 06:04:13;;;;;;;6.40;1.80;;;19.70;99.90;;;;;;5001708;28;20041;-86
2023/09/01 06:06:39;;;;;;;8.00;1.92;;;19.60;99.90;;;;;;5028489;28;20030;-84
2023/09/01 06:09:05;;;;;;;5.20;2.03;;;19.50;99.90;;;;;;5020372;28;20486;-90
2023/09/01 06:11:32;;;;;;;6.38;1.88;;;19.60;99.90;;;;;;5022912;28;20025;-86
2023/09/01 06:13:59;;;;;;;4.68;1.80;;;19.60;99.90;;;;;;5029948;28;20397;-83
2023/09/01 06:16:25;;;;;;;8.82;1.73;;;19.70;99.90;;;;;;5020566;28;20079;-87
2023/09/01 06:18:52;;;;;;;5.88;1.63;;;19.70;99.90;;;;;;5019125;28;20413;-82
2023/09/01 06:21:17;;;;;;;5.50;2.00;;;19.80;99.90;;;;;;5017824;28;20018;-89
2023/09/01 06:23:46;;;;;;;6.22;2.15;;;19.70;99.90;;;;;;5026355;28;20029;-83
2023/09/01 06:26:17;;;;;;;9.45;1.65;;;19.70;99.90;;;;;;5029927;28;20026;-86
2023/09/01 06:28:47;;;;;;;9.07;2.08;;;19.70;99.90;;;;;;5025214;28;20030;-84
2023/09/01 06:31:16;;;;;;;4.18;1.20;;;19.70;99.90;;;;;;5022629;28;20072;-84
2023/09/01 06:33:43;;;;;;;7.53;1.55;;;19.70;99.90;;;;;;5019372;28;20029;-84
2023/09/01 06:36:18;;;;;;;2.92;1.10;;;19.70;99.90;;;;;;5011915;28;20021;-90
2023/09/01 06:38:43;;;;;;;2.70;1.40;;;19.70;99.90;;;;;;5030918;28;20477;-88
2023/09/01 06:41:09;;;;;;;4.68;1.50;;;19.70;99.90;;;;;;5010708;28;20021;-90
2023/09/01 06:43:36;;;;;;;5.50;1.55;;;19.80;99.90;;;;;;5036063;28;20032;-87
2023/09/01 06:46:02;;;;;;;8.07;1.50;;;19.90;99.90;;;;;;5046456;28;20021;-86
2023/09/01 06:48:30;;;;;;;6.05;1.80;;;19.90;99.90;;;;;;5050293;28;20033;-82
2023/09/01 06:50:57;;;;;;;3.78;1.27;;;19.80;99.90;;;;;;5037287;28;20040;-82
2023/09/01 06:53:22;;;;;;;2.47;1.33;;;19.80;99.90;;;;;;5029972;28;20396;-83
2023/09/01 06:55:48;;;;;;;4.57;1.45;;;19.80;99.90;;;;;;5028780;28;20116;-82
2023/09/01 06:58:14;;;;;;;6.68;1.60;;;19.90;99.90;;;;;;5029778;28;20029;-83
2023/09/01 07:00:40;;;;;;;4.50;1.35;;;19.90;99.90;;;;;;5024628;28;20050;-83
2023/09/01 07:03:06;;;;;;;3.53;1.52;;;19.90;99.90;;;;;;5027886;28;20053;-83
2023/09/01 07:05:31;;;;;;;5.63;1.60;;;20.00;99.90;;;;;;5030357;28;20025;-83
2023/09/01 07:07:57;;;;;;;3.80;1.25;;;20.00;99.90;;;;;;5029927;28;20117;-83
2023/09/01 07:10:22;;;;;;;4.25;1.52;;;20.10;99.90;;;;;;5029380;28;20109;-84
2023/09/01 07:12:48;;;;;;;8.02;1.90;;;20.20;99.90;;;;;;4999629;28;20485;-84
2023/09/01 07:15:13;;;;;;;5.45;1.45;;;20.20;99.90;;;;;;5010263;28;20080;-84
2023/09/01 07:17:39;;;;;;;3.60;1.35;;;20.20;99.90;;;;;;5009667;28;20099;-83
2023/09/01 07:20:05;;;;;;;3.58;1.60;;;20.00;99.90;;;;;;5010477;28;20103;-84
2023/09/01 07:22:31;;;;;;;5.68;1.58;;;20.20;99.90;;;;;;5010310;28;20034;-85
2023/09/01 07:24:57;;;;;;;10.48;2.13;;;20.20;99.90;;;;;;4992514;28;20029;-83
2023/09/01 07:27:22;;;;;;;4.50;1.35;;;20.20;99.90;;;;;;5022761;28;20554;-83
2023/09/01 07:29:48;;;;;;;5.80;1.75;;;20.20;99.90;;;;;;5028516;28;20033;-81
2023/09/01 07:32:17;;;;;;;6.03;1.58;;;20.10;99.90;;;;;;5029492;28;20033;-82
2023/09/01 07:34:45;;;;;;;7.53;1.50;;;20.10;99.90;;;;;;5029058;28;20037;-83
2023/09/01 07:37:11;;;;;;;;;;;20.20;99.90;;;;;;5029899;28;20120;-83
2023/09/01 07:39:37;;;;;;;8.80;1.60;;;20.10;99.90;;;;;;5028677;28;20003;-83
2023/09/01 07:42:04;;;;;;;4.63;1.67;;;20.10;99.90;;;;;;5029754;28;20028;-83
2023/09/01 07:44:30;;;;;;;10.65;2.55;;;20.20;99.90;;;;;;5028732;28;20185;-83
2023/09/01 07:46:55;;;;;;;2.85;1.48;;;20.20;99.90;;;;;;5029244;28;20108;-82
2023/09/01 07:49:21;;;;;;;3.80;1.48;;;20.30;99.90;;;;;;5028979;28;20087;-83
2023/09/01 07:51:47;;;;;;;5.40;1.65;;;20.30;99.90;;;;;;5025260;28;20470;-81
2023/09/01 07:54:13;;;;;;;8.00;1.80;;;20.40;99.90;;;;;;5012236;28;20026;-83
2023/09/01 07:56:39;;;;;;;4.72;1.60;;;20.40;99.90;;;;;;5028072;28;20429;-83
2023/09/01 07:59:05;;;;;;;4.30;1.40;;;20.50;99.90;;;;;;5026015;28;20108;-84
2023/09/01 08:01:30;;;;;;;4.07;1.45;;;20.60;99.90;;;;;;5026932;28;20758;-85
2023/09/01 08:03:59;;;;;;;5.82;1.65;;;20.70;99.90;;;;;;5018487;28;20029;-84
2023/09/01 08:06:26;;;;;;;5.95;1.50;;;20.70;99.90;;;;;;5009900;28;20163;-84
2023/09/01 08:08:52;;;;;;;5.60;1.73;;;20.90;99.90;;;;;;5018185;28;20040;-83
2023/09/01 08:11:18;;;;;;;5.18;1.83;;;21.10;99.90;;;;;;5027566;28;20025;-85
2023/09/01 08:13:43;;;;;;;5.28;1.48;;;21.20;99.90;;;;;;5027797;28;20025;-84
2023/09/01 08:16:09;;;;;;;3.90;1.20;;;21.30;99.90;;;;;;5022513;28;20026;-83
2023/09/01 08:18:34;;;;;;;4.97;1.48;;;21.40;99.90;;;;;;5013905;28;20075;-82
2023/09/01 08:21:05;;;;;;;4.20;1.25;;;21.40;99.90;;;;;;5017152;28;20026;-83
2023/09/01 08:23:30;;;;;;;3.72;1.05;;;21.30;99.90;;;;;;5008702;28;20076;-82
2023/09/01 08:25:56;;;;;;;6.03;1.23;;;21.30;99.90;;;;;;5020450;28;20464;-84
2023/09/01 08:28:22;;;;;;;3.20;1.20;;;21.40;99.90;;;;;;5022897;28;20470;-83
2023/09/01 08:30:47;;;;;;;6.60;1.27;;;21.40;99.90;;;;;;5031283;28;20524;-83
2023/09/01 08:33:14;;;;;;;5.10;1.40;;;21.40;99.90;;;;;;5032185;28;20021;-84
2023/09/01 08:35:40;;;;;;;5.65;1.40;;;21.40;99.90;;;;;;5032887;28;20095;-83
2023/09/01 08:38:05;;;;;;;3.25;1.30;;;21.50;99.90;;;;;;5033111;28;20485;-84
2023/09/01 08:40:31;;;;;;;5.93;1.17;;;21.40;99.90;;;;;;5025674;28;20040;-83
2023/09/01 08:43:00;;;;;;;3.35;1.55;;;21.40;99.90;;;;;;5013428;28;20018;-83
2023/09/01 08:45:27;;;;;;;4.63;1.23;;;21.40;99.90;;;;;;5016592;28;20438;-83
2023/09/01 08:47:53;;;;;;;2.08;0.98;;;21.40;99.90;;;;;;5014303;28;20079;-82
2023/09/01 08:50:21;;;;;;;3.28;0.90;;;21.30;99.90;;;;;;5017221;28;20029;-82
2023/09/01 08:52:48;;;;;;;1.77;0.80;;;21.30;99.90;;;;;;5012697;28;20113;-82
2023/09/01 08:55:17;;;;;;;1.02;0.80;;;21.20;99.90;;;;;;5016492;28;20108;-84
2023/09/01 08:57:44;;;;;;;1.92;0.70;;;21.20;99.90;;;;;;5016767;28;20496;-83
2023/09/01 09:00:10;;;;;;;2.58;0.77;;;21.30;99.90;;;;;;5020487;28;20041;-83
2023/09/01 09:02:41;;;;;;;1.75;0.80;;;21.30;99.90;;;;;;5025313;28;20088;-82
2023/09/01 09:05:09;;;;;;;1.50;0.73;;;21.40;99.90;;;;;;5028681;28;20034;-85
2023/09/01 09:07:34;;;;;;;2.40;0.93;;;21.30;99.90;;;;;;5030491;28;20049;-84
2023/09/01 09:10:00;;;;;;;1.77;0.90;;;21.40;99.90;;;;;;5014330;28;20386;-83
2023/09/01 09:12:39;;;;;;;5.82;1.15;;;21.40;99.90;;;;;;5022088;28;20026;-83
2023/09/01 09:15:06;;;;;;;1.10;0.88;;;21.50;99.90;;;;;;5027241;28;20025;-84
2023/09/01 09:17:44;;;;;;;3.25;0.95;;;21.70;99.90;;;;;;5014375;28;20238;-83
2023/09/01 09:20:10;;;;;;;3.17;0.80;;;21.80;99.90;;;;;;5022643;28;20389;-83
2023/09/01 09:22:56;;;;;;;3.10;0.73;;;21.80;99.90;;;;;;5012131;28;20049;-85
2023/09/01 09:25:40;;;;;;;1.77;0.80;;;21.90;99.90;;;;;;5012800;28;20033;-84
2023/09/01 09:28:13;;;;;;;1.20;0.73;;;21.90;99.90;;;;;;4994561;28;20033;-84
2023/09/01 09:30:49;;;;;;;2.40;0.90;;;22.00;99.90;;;;;;5012840;28;20144;-84
2023/09/01 09:33:14;;;;;;;2.30;0.82;;;22.10;99.90;;;;;;5029319;28;20051;-84
2023/09/01 09:35:50;;;;;;;3.05;0.90;;;22.10;99.90;;;;;;5031226;28;20409;-84
2023/09/01 09:38:17;;;;;;;2.40;0.90;;;22.20;99.90;;;;;;5028412;28;20024;-83
2023/09/01 09:40:56;;;;;;;2.42;0.90;;;22.30;99.90;;;;;;5021882;28;20025;-82
2023/09/01 09:43:22;;;;;;;1.20;0.80;;;22.30;99.90;;;;;;5031010;28;20029;-84
2023/09/01 09:45:48;;;;;;;3.00;0.88;;;22.40;99.90;;;;;;5030848;28;20539;-82
2023/09/01 09:48:14;;;;;;;5.10;1.00;;;22.30;99.90;;;;;;5031264;28;20037;-83
2023/09/01 09:50:42;;;;;;;1.48;0.93;;;22.40;99.90;;;;;;5031222;28;20075;-84
2023/09/01 09:53:13;;;;;;;3.38;1.25;;;22.40;99.90;;;;;;5014157;28;20056;-83
2023/09/01 09:55:44;;;;;;;2.05;1.10;;;22.40;99.90;;;;;;5031741;28;20029;-81
2023/09/01 09:58:11;;;;;;;1.60;0.80;;;22.50;99.90;;;;;;5019905;28;20017;-82
2023/09/01 10:00:58;;;;;;;1.95;0.80;;;22.40;99.90;;;;;;5029429;28;20021;-83
2023/09/01 10:03:28;;;;;;;2.30;1.08;;;22.50;99.90;;;;;;5029382;28;20044;-84
2023/09/01 10:05:54;;;;;;;0.95;0.80;;;22.50;99.90;;;;;;5030419;28;20026;-81
2023/09/01 10:08:21;;;;;;;1.60;1.02;;;22.60;99.90;;;;;;5030935;28;20029;-83
2023/09/01 10:10:49;;;;;;;2.67;1.03;;;22.40;99.90;;;;;;5021163;28;20043;-83
2023/09/01 10:13:15;;;;;;;1.23;1.10;;;22.60;99.90;;;;;;5028811;28;20036;-82
2023/09/01 10:15:41;;;;;;;1.25;0.82;;;22.70;99.90;;;;;;5011488;28;20040;-82
2023/09/01 10:18:09;;;;;;;2.03;0.80;;;22.90;99.90;;;;;;5012310;28;20038;-81
2023/09/01 10:20:37;;;;;;;1.83;0.90;;;22.90;99.90;;;;;;5010987;28;20030;-82
2023/09/01 10:23:07;;;;;;;1.42;0.82;;;22.90;99.90;;;;;;5011013;28;20026;-83
2023/09/01 10:25:34;;;;;;;2.85;1.00;;;23.00;99.90;;;;;;4999374;28;20528;-82
2023/09/01 10:28:05;;;;;;;2.03;0.60;;;23.10;99.90;;;;;;5011059;28;20119;-83
2023/09/01 10:30:42;;;;;;;1.52;0.77;;;23.10;99.90;;;;;;5007752;28;20394;-84
2023/09/01 10:33:23;;;;;;;2.33;0.73;;;23.20;99.90;;;;;;5011001;28;20033;-81
2023/09/01 10:35:53;;;;;;;0.70;0.70;;;23.20;99.90;;;;;;5010513;28;20367;-82
2023/09/01 10:38:21;;;;;;;2.88;0.90;;;23.10;99.90;;;;;;5010754;28;20029;-82
2023/09/01 10:40:50;;;;;;;0.90;0.88;;;23.00;99.90;;;;;;5025761;28;20025;-81
2023/09/01 10:43:44;;;;;;;1.95;0.80;;;22.90;99.90;;;;;;5027373;28;20075;-81
2023/09/01 10:46:16;;;;;;;1.75;0.70;;;23.00;99.90;;;;;;5022633;28;20413;-82
2023/09/01 10:49:00;;;;;;;1.38;0.85;;;23.00;99.90;;;;;;5011672;28;20034;-81
2023/09/01 10:51:31;;;;;;;1.40;0.80;;;23.00;99.90;;;;;;5015707;28;20092;-81
2023/09/01 10:53:59;;;;;;;3.30;1.00;;;22.80;99.90;;;;;;5024594;28;20032;-82
2023/09/01 10:56:26;;;;;;;1.52;0.85;;;22.90;99.90;;;;;;5028320;28;20095;-81
2023/09/01 10:58:54;;;;;;;0.85;0.77;;;22.90;99.90;;;;;;5020738;28;20041;-82
2023/09/01 11:01:31;;;;;;;4.00;0.98;;;22.90;99.90;;;;;;5025750;28;20108;-82
2023/09/01 11:04:21;;;;;;;1.38;0.65;;;23.10;99.90;;;;;;5029068;28;20037;-81
2023/09/01 11:06:56;;;;;;;2.75;0.98;;;22.90;99.90;;;;;;4997862;28;20026;-83
2023/09/01 11:09:34;;;;;;;3.03;1.25;;;23.10;99.90;;;;;;5025824;28;20513;-82
2023/09/01 11:12:00;;;;;;;0.95;0.60;;;23.20;99.90;;;;;;5011070;28;20084;-84
2023/09/01 11:14:26;;;;;;;3.33;0.95;;;23.30;99.90;;;;;;5020360;28;20554;-81
2023/09/01 11:16:52;;;;;;;4.75;1.13;;;23.20;99.90;;;;;;5006532;28;20112;-83
2023/09/01 11:19:18;;;;;;;0.93;0.65;;;23.30;99.90;;;;;;5019647;28;20025;-82
2023/09/01 11:21:45;;;;;;;1.25;0.90;;;23.30;99.90;;;;;;5020181;28;20100;-87
2023/09/01 11:24:11;;;;;;;4.53;0.93;;;23.30;99.90;;;;;;5022214;28;20018;-84
2023/09/01 11:26:37;;;;;;;1.92;0.70;;;23.40;99.90;;;;;;5007666;28;20045;-84
2023/09/01 11:29:08;;;;;;;2.05;0.70;;;23.40;99.90;;;;;;5028244;28;20025;-84
2023/09/01 11:31:42;;;;;;;2.10;1.20;;;23.50;99.90;;;;;;5021084;28;20056;-84
2023/09/01 11:34:08;;;;;;;2.17;0.82;;;23.60;99.90;;;;;;5022262;28;20029;-84
2023/09/01 11:36:34;;;;;;;1.02;0.80;;;23.60;99.90;;;;;;5027706;28;20026;-84
2023/09/01 11:39:00;;;;;;;2.28;1.10;;;23.60;99.90;;;;;;5029528;28;20026;-84
2023/09/01 11:41:27;;;;;;;2.55;0.90;;;23.70;99.90;;;;;;5028554;28;20026;-83
2023/09/01 11:43:56;;;;;;;2.33;0.90;;;23.80;99.90;;;;;;5020170;28;20030;-84
2023/09/01 11:46:36;;;;;;;1.63;0.70;;;23.90;99.90;;;;;;4992008;28;20369;-84
2023/09/01 11:49:02;;;;;;;2.20;0.90;;;23.90;99.90;;;;;;5013298;28;20038;-84
2023/09/01 11:51:37;;;;;;;2.08;1.05;;;23.80;99.90;;;;;;5020875;28;20425;-84
2023/09/01 11:54:03;;;;;;;1.73;0.90;;;23.80;99.90;;;;;;5028380;28;20382;-84
2023/09/01 11:56:29;;;;;;;1.25;0.60;;;23.60;99.90;;;;;;5028971;28;20013;-83
2023/09/01 11:58:58;;;;;;;1.60;0.80;;;23.60;99.90;;;;;;5015169;28;20105;-84
2023/09/01 12:01:27;;;;;;;1.67;0.70;;;23.60;99.90;;;;;;5010674;28;20025;-83
2023/09/01 12:04:05;;;;;;;1.80;0.70;;;23.50;99.90;;;;;;5025571;28;20052;-84
2023/09/01 12:06:31;;;;;;;1.15;0.70;;;23.50;99.90;;;;;;5011597;28;20025;-84
2023/09/01 12:09:13;;;;;;;1.38;0.57;;;23.60;99.90;;;;;;5019850;28;20042;-83
2023/09/01 12:11:55;;;;;;;2.30;0.60;;;23.80;99.90;;;;;;5009110;28;20026;-84
2023/09/01 12:14:25;;;;;;;4.13;0.90;;;23.70;99.90;;;;;;5022873;28;20116;-83
2023/09/01 12:16:53;;;;;;;0.40;0.40;;;23.20;99.90;;;;;;5023453;28;20026;-83
2023/09/01 12:19:22;;;;;;;5.13;0.50;;;23.00;99.90;;;;;;5014282;28;20034;-85
2023/09/01 12:21:48;;;;;;;0.70;0.40;;;22.90;99.90;;;;;;5012189;28;20418;-83
2023/09/01 12:24:14;;;;;;;0.98;0.50;;;22.80;99.90;;;;;;5028082;28;20497;-82
2023/09/01 12:26:39;;;;;;;0.82;0.70;;;22.70;99.90;;;;;;5026172;28;20030;-84
2023/09/01 12:29:05;;;;;;;2.72;0.65;;;22.70;99.90;;;;;;5009204;28;20030;-83
2023/09/01 12:31:30;;;;;;;3.35;0.60;;;22.70;99.90;;;;;;5015989;28;20076;-83
2023/09/01 12:33:56;;;;;;;1.30;0.68;;;22.80;99.90;;;;;;5026774;28;20029;-84
2023/09/01 12:36:22;;;;;;;0.70;0.70;;;22.90;99.90;;;;;;5009302;28;20527;-81
2023/09/01 12:38:48;;;;;;;1.83;0.73;;;22.80;99.90;;;;;;5009843;28;20033;-82
2023/09/01 12:41:13;;;;;;;1.60;0.63;;;22.80;99.90;;;;;;5014308;28;20048;-88
2023/09/01 12:43:39;;;;;;;0.65;0.60;;;22.80;99.90;;;;;;5028891;28;20021;-82
2023/09/01 12:46:05;;;;;;;1.65;0.60;;;22.80;99.90;;;;;;5028738;28;20033;-84
2023/09/01 12:48:31;;;;;;;1.40;0.60;;;22.90;99.90;;;;;;5012856;28;20034;-83